createdAt,value
2023-08-17T00:02:17.675Z,22.52
2023-08-17T00:04:44.666Z,22.53
2023-08-17T00:07:11.898Z,22.51
2023-08-17T00:09:39.597Z,22.51
2023-08-17T00:12:06.863Z,22.48
2023-08-17T00:14:33.778Z,22.46
2023-08-17T00:17:00.767Z,22.47
2023-08-17T00:19:27.663Z,22.45
2023-08-17T00:21:56.332Z,22.42
2023-08-17T00:24:23.193Z,22.35
2023-08-17T00:26:50.109Z,22.30
2023-08-17T00:29:18.211Z,22.26
2023-08-17T00:31:45.317Z,22.21
2023-08-17T00:34:12.380Z,22.18
2023-08-17T00:36:39.243Z,22.18
2023-08-17T00:39:06.277Z,22.16
2023-08-17T00:41:33.201Z,22.10
2023-08-17T00:44:01.801Z,22.07
2023-08-17T00:46:30.751Z,22.04
2023-08-17T00:48:59.367Z,22.04
2023-08-17T00:51:27.501Z,22.04
2023-08-17T00:53:59.086Z,22.01
2023-08-17T00:56:27.629Z,21.97
2023-08-17T00:58:55.261Z,21.97
2023-08-17T01:01:23.757Z,21.95
2023-08-17T01:03:50.901Z,21.93
2023-08-17T01:06:17.787Z,21.91
2023-08-17T01:08:45.881Z,21.87
2023-08-17T01:11:35.793Z,21.84
2023-08-17T01:14:34.284Z,21.84
2023-08-17T01:17:49.518Z,21.84
2023-08-17T01:20:18.127Z,21.82
2023-08-17T01:22:49.881Z,21.78
2023-08-17T01:25:17.010Z,21.76
2023-08-17T01:27:46.711Z,21.74
2023-08-17T01:30:18.782Z,21.74
2023-08-17T01:33:08.401Z,21.74
2023-08-17T01:35:51.243Z,21.69
2023-08-17T01:38:20.156Z,21.68
2023-08-17T01:40:48.879Z,21.69
2023-08-17T01:43:18.040Z,21.70
2023-08-17T01:45:45.255Z,21.67
2023-08-17T01:48:12.211Z,21.66
2023-08-17T01:50:39.105Z,21.63
2023-08-17T01:53:06.013Z,21.60
2023-08-17T01:55:32.898Z,21.57
2023-08-17T01:57:59.851Z,21.54
2023-08-17T02:00:26.870Z,21.53
2023-08-17T02:02:53.784Z,21.50
2023-08-17T02:05:20.708Z,21.50
2023-08-17T02:07:47.605Z,21.48
2023-08-17T02:10:14.510Z,21.47
2023-08-17T02:12:41.363Z,21.46
2023-08-17T02:15:09.189Z,21.48
2023-08-17T02:17:36.186Z,21.48
2023-08-17T02:20:04.911Z,21.45
2023-08-17T02:22:31.842Z,21.44
2023-08-17T02:24:58.735Z,21.42
2023-08-17T02:27:26.124Z,21.40
2023-08-17T02:29:53.196Z,21.38
2023-08-17T02:32:20.104Z,21.36
2023-08-17T02:34:47.033Z,21.36
2023-08-17T02:37:13.895Z,21.37
2023-08-17T02:39:40.902Z,21.32
2023-08-17T02:42:07.807Z,21.30
2023-08-17T02:44:34.786Z,21.27
2023-08-17T02:47:01.739Z,21.27
2023-08-17T02:49:28.602Z,21.26
2023-08-17T02:51:55.487Z,21.22
2023-08-17T02:54:22.415Z,21.22
2023-08-17T02:56:49.373Z,21.22
2023-08-17T02:59:16.225Z,21.24
2023-08-17T03:01:43.221Z,21.26
2023-08-17T03:04:10.178Z,21.29
2023-08-17T03:06:37.047Z,21.32
2023-08-17T03:09:04.415Z,21.33
2023-08-17T03:11:31.307Z,21.32
2023-08-17T03:14:04.044Z,21.36
2023-08-17T03:16:31.456Z,21.33
2023-08-17T03:18:59.301Z,21.34
2023-08-17T03:21:26.786Z,21.33
2023-08-17T03:23:53.921Z,21.33
2023-08-17T03:26:20.897Z,21.30
2023-08-17T03:28:47.738Z,21.32
2023-08-17T03:31:14.682Z,21.30
2023-08-17T03:33:41.829Z,21.30
2023-08-17T03:36:08.808Z,21.29
2023-08-17T03:38:35.711Z,21.27
2023-08-17T03:41:02.758Z,21.25
2023-08-17T03:43:29.613Z,21.23
2023-08-17T03:45:56.451Z,21.22
2023-08-17T03:48:23.893Z,21.25
2023-08-17T03:50:55.616Z,21.27
2023-08-17T03:53:22.653Z,21.30
2023-08-17T03:55:52.749Z,21.30
2023-08-17T03:58:19.857Z,21.31
2023-08-17T04:00:54.315Z,21.32
2023-08-17T04:03:21.500Z,21.34
2023-08-17T04:05:48.440Z,21.36
2023-08-17T04:08:15.311Z,21.39
2023-08-17T04:10:42.188Z,21.40
2023-08-17T04:13:09.076Z,21.41
2023-08-17T04:15:36.044Z,21.43
2023-08-17T04:18:02.943Z,21.44
2023-08-17T04:20:29.837Z,21.47
2023-08-17T04:22:56.719Z,21.50
2023-08-17T04:25:23.591Z,21.51
2023-08-17T04:27:50.465Z,21.43
2023-08-17T04:30:17.381Z,21.43
2023-08-17T04:32:44.575Z,21.40
2023-08-17T04:35:11.914Z,21.36
2023-08-17T04:37:38.855Z,21.31
2023-08-17T04:40:06.972Z,21.30
2023-08-17T04:42:33.837Z,21.29
2023-08-17T04:45:00.671Z,21.25
2023-08-17T04:47:27.923Z,21.18
2023-08-17T04:49:55.079Z,21.15
2023-08-17T04:52:21.946Z,21.15
2023-08-17T04:54:48.877Z,21.15
2023-08-17T04:57:15.781Z,21.17
2023-08-17T04:59:42.656Z,21.21
2023-08-17T05:02:09.540Z,21.25
2023-08-17T05:04:37.264Z,21.31
2023-08-17T05:07:04.378Z,21.33
2023-08-17T05:09:31.681Z,21.33
2023-08-17T05:11:58.719Z,21.37
2023-08-17T05:14:25.608Z,21.39
2023-08-17T05:16:52.497Z,21.42
2023-08-17T05:19:19.333Z,21.43
2023-08-17T05:21:46.279Z,21.44
2023-08-17T05:24:13.204Z,21.49
2023-08-17T05:26:40.124Z,21.53
2023-08-17T05:29:07.023Z,21.58
2023-08-17T05:31:33.930Z,21.60
2023-08-17T05:34:00.826Z,21.55
2023-08-17T05:36:27.655Z,21.58
2023-08-17T05:38:54.468Z,21.56
2023-08-17T05:41:21.443Z,21.55
2023-08-17T05:43:49.770Z,21.53
2023-08-17T05:46:16.631Z,21.54
2023-08-17T05:48:44.002Z,21.56
2023-08-17T05:51:10.910Z,21.64
2023-08-17T05:53:37.764Z,21.63
2023-08-17T05:56:04.740Z,21.68
2023-08-17T05:58:31.648Z,21.76
2023-08-17T06:01:09.585Z,21.78
2023-08-17T06:03:38.178Z,21.84
2023-08-17T06:06:06.686Z,21.88
2023-08-17T06:08:33.989Z,21.90
2023-08-17T06:11:01.018Z,21.93
2023-08-17T06:13:27.905Z,21.97
2023-08-17T06:15:57.781Z,22.09
2023-08-17T06:18:25.711Z,22.16
2023-08-17T06:20:54.698Z,22.19
2023-08-17T06:23:22.032Z,22.26
2023-08-17T06:25:48.957Z,22.29
2023-08-17T06:28:16.012Z,22.23
2023-08-17T06:30:42.967Z,22.18
2023-08-17T06:33:09.964Z,22.15
2023-08-17T06:35:37.081Z,22.15
2023-08-17T06:38:04.150Z,22.17
2023-08-17T06:40:31.051Z,22.23
2023-08-17T06:42:57.883Z,22.28
2023-08-17T06:45:24.744Z,22.29
2023-08-17T06:47:51.689Z,22.33
2023-08-17T06:50:18.651Z,22.44
2023-08-17T06:52:45.519Z,22.51
2023-08-17T06:55:12.392Z,22.58
2023-08-17T06:57:39.349Z,22.57
2023-08-17T07:00:07.096Z,22.57
2023-08-17T07:02:50.664Z,22.56
2023-08-17T07:05:19.620Z,22.61
2023-08-17T07:07:46.519Z,22.63
2023-08-17T07:10:13.471Z,22.68
2023-08-17T07:12:40.773Z,22.70
2023-08-17T07:15:13.858Z,22.72
2023-08-17T07:17:40.931Z,22.74
2023-08-17T07:20:16.475Z,22.70
2023-08-17T07:22:44.703Z,22.59
2023-08-17T07:25:11.605Z,22.55
2023-08-17T07:27:38.567Z,22.55
2023-08-17T07:30:06.132Z,22.50
2023-08-17T07:32:33.502Z,22.51
2023-08-17T07:35:00.416Z,22.59
2023-08-17T07:37:34.257Z,22.62
2023-08-17T07:40:01.401Z,22.66
2023-08-17T07:42:28.542Z,22.69
2023-08-17T07:44:55.619Z,22.73
2023-08-17T07:47:22.563Z,22.83
2023-08-17T07:49:50.040Z,22.91
2023-08-17T07:52:17.322Z,22.98
2023-08-17T07:54:44.677Z,23.06
2023-08-17T07:57:11.738Z,23.08
2023-08-17T07:59:38.664Z,23.11
2023-08-17T08:02:05.615Z,23.15
2023-08-17T08:04:32.605Z,23.17
2023-08-17T08:06:59.641Z,23.18
2023-08-17T08:09:26.584Z,23.23
2023-08-17T08:11:53.454Z,23.32
2023-08-17T08:14:20.349Z,23.40
2023-08-17T08:16:48.303Z,23.43
2023-08-17T08:19:15.263Z,23.47
2023-08-17T08:21:42.092Z,23.46
2023-08-17T08:24:17.711Z,23.46
2023-08-17T08:26:45.280Z,23.55
2023-08-17T08:29:12.237Z,23.72
2023-08-17T08:31:39.562Z,23.81
2023-08-17T08:34:06.461Z,23.85
2023-08-17T08:36:33.425Z,23.88
2023-08-17T08:39:00.326Z,23.86
2023-08-17T08:41:28.887Z,23.91
2023-08-17T08:43:56.412Z,23.94
2023-08-17T08:46:27.999Z,24.14
2023-08-17T08:48:56.175Z,24.52
2023-08-17T08:51:31.421Z,24.88
2023-08-17T08:54:14.634Z,25.06
2023-08-17T08:56:47.832Z,25.12
2023-08-17T08:59:16.089Z,25.05
2023-08-17T09:01:43.566Z,24.94
2023-08-17T09:04:10.813Z,24.92
2023-08-17T09:06:39.864Z,24.95
2023-08-17T09:09:07.466Z,24.88
2023-08-17T09:11:34.383Z,24.85
2023-08-17T09:14:01.243Z,24.89
2023-08-17T09:16:29.295Z,25.02
2023-08-17T09:18:56.290Z,25.11
2023-08-17T09:21:25.389Z,25.20
2023-08-17T09:23:58.913Z,25.28
2023-08-17T09:26:26.518Z,25.31
2023-08-17T09:28:55.330Z,25.34
2023-08-17T09:31:22.776Z,25.39
2023-08-17T09:33:53.289Z,25.50
2023-08-17T09:36:24.628Z,25.58
2023-08-17T09:38:52.536Z,25.65
2023-08-17T09:41:20.405Z,25.77
2023-08-17T09:43:50.480Z,25.81
2023-08-17T09:46:17.496Z,25.88
2023-08-17T09:48:48.029Z,25.90
2023-08-17T09:51:18.698Z,25.93
2023-08-17T09:53:45.584Z,25.94
2023-08-17T09:58:43.570Z,26.20
2023-08-17T10:01:11.191Z,26.38
2023-08-17T10:03:40.472Z,26.66
2023-08-17T10:06:11.175Z,26.88
2023-08-17T10:08:47.870Z,27.22
2023-08-17T10:11:20.869Z,27.66
2023-08-17T10:13:53.571Z,28.35
2023-08-17T10:16:31.656Z,28.89
2023-08-17T10:19:31.180Z,29.00
2023-08-17T10:22:22.473Z,29.08
2023-08-17T10:24:50.460Z,29.09
2023-08-17T10:27:18.727Z,28.72
2023-08-17T10:29:46.466Z,28.13
2023-08-17T10:32:16.773Z,27.74
2023-08-17T10:34:49.933Z,27.49
2023-08-17T10:37:18.543Z,27.30
2023-08-17T10:39:50.131Z,27.06
2023-08-17T10:42:34.595Z,26.88
2023-08-17T10:45:02.824Z,26.77
2023-08-17T10:47:35.656Z,26.71
2023-08-17T10:50:08.225Z,26.60
2023-08-17T10:52:39.011Z,26.53
2023-08-17T10:55:09.870Z,26.54
2023-08-17T10:57:41.082Z,26.59
2023-08-17T11:00:22.966Z,26.54
2023-08-17T11:03:13.403Z,26.53
2023-08-17T11:05:56.738Z,26.52
2023-08-17T11:08:34.685Z,26.37
2023-08-17T11:11:13.654Z,26.33
2023-08-17T11:13:43.244Z,26.38
2023-08-17T11:16:12.769Z,26.43
2023-08-17T11:18:45.373Z,26.35
2023-08-17T11:21:19.394Z,26.36
2023-08-17T11:23:46.914Z,26.39
2023-08-17T11:26:17.975Z,26.40
2023-08-17T11:28:45.916Z,26.42
2023-08-17T11:31:16.554Z,26.37
2023-08-17T11:33:43.919Z,26.26
2023-08-17T11:36:11.797Z,26.28
2023-08-17T11:38:42.096Z,26.33
2023-08-17T11:41:10.257Z,26.37
2023-08-17T11:43:38.463Z,26.43
2023-08-17T11:46:06.660Z,26.47
2023-08-17T11:48:37.584Z,26.52
2023-08-17T11:51:05.269Z,26.68
2023-08-17T11:53:40.356Z,26.87
2023-08-17T11:56:09.992Z,27.05
2023-08-17T11:58:46.394Z,27.24
2023-08-17T12:01:16.599Z,27.45
2023-08-17T12:03:44.204Z,27.59
2023-08-17T12:06:14.139Z,27.67
2023-08-17T12:08:48.113Z,27.71
2023-08-17T12:11:18.990Z,27.74
2023-08-17T12:13:52.159Z,27.68
2023-08-17T12:16:20.747Z,27.71
2023-08-17T12:18:52.887Z,27.73
2023-08-17T12:21:24.317Z,27.62
2023-08-17T12:23:51.862Z,27.64
2023-08-17T12:26:23.062Z,27.71
2023-08-17T12:28:51.373Z,27.75
2023-08-17T12:31:24.270Z,27.82
2023-08-17T12:33:52.778Z,27.96
2023-08-17T12:36:21.509Z,28.00
2023-08-17T12:38:49.347Z,28.06
2023-08-17T12:41:17.238Z,28.08
2023-08-17T12:43:44.400Z,28.05
2023-08-17T12:46:12.122Z,28.06
2023-08-17T12:48:42.130Z,28.08
2023-08-17T12:51:09.087Z,28.09
2023-08-17T12:53:35.983Z,28.05
2023-08-17T12:56:03.000Z,28.04
2023-08-17T12:58:29.969Z,28.07
2023-08-17T13:00:56.984Z,28.13
2023-08-17T13:03:24.077Z,28.13
2023-08-17T13:05:51.411Z,28.04
2023-08-17T13:08:18.328Z,27.87
2023-08-17T13:10:45.289Z,27.75
2023-08-17T13:13:12.255Z,27.60
2023-08-17T13:15:39.198Z,27.58
2023-08-17T13:18:06.458Z,27.56
2023-08-17T13:20:33.858Z,27.59
2023-08-17T13:23:00.775Z,27.53
2023-08-17T13:25:27.720Z,27.52
2023-08-17T13:27:54.589Z,27.50
2023-08-17T13:30:22.215Z,27.45
2023-08-17T13:32:49.214Z,27.47
2023-08-17T13:35:16.230Z,27.46
2023-08-17T13:37:43.186Z,27.46
2023-08-17T13:40:11.235Z,27.46
2023-08-17T13:42:38.211Z,27.40
2023-08-17T13:45:05.739Z,27.19
2023-08-17T13:47:32.742Z,27.09
2023-08-17T13:49:59.806Z,27.08
2023-08-17T13:52:26.949Z,27.12
2023-08-17T13:54:54.347Z,27.18
2023-08-17T13:57:21.268Z,27.27
2023-08-17T13:59:48.293Z,27.40
2023-08-17T14:02:15.271Z,27.49
2023-08-17T14:04:42.268Z,27.61
2023-08-17T14:07:09.180Z,27.73
2023-08-17T14:09:36.043Z,27.81
2023-08-17T14:12:03.122Z,27.87
2023-08-17T14:14:30.133Z,27.88
2023-08-17T14:16:58.023Z,27.89
2023-08-17T14:19:25.117Z,27.86
2023-08-17T14:21:53.461Z,27.86
2023-08-17T14:24:20.365Z,27.89
2023-08-17T14:26:47.262Z,27.92
2023-08-17T14:29:14.517Z,27.99
2023-08-17T14:31:41.449Z,27.96
2023-08-17T14:34:08.387Z,27.89
2023-08-17T14:36:35.403Z,27.88
2023-08-17T14:39:02.324Z,27.86
2023-08-17T14:41:33.213Z,27.88
2023-08-17T14:44:03.179Z,27.91
2023-08-17T14:46:31.076Z,27.94
2023-08-17T14:48:58.878Z,28.00
2023-08-17T14:51:31.071Z,28.04
2023-08-17T14:53:58.487Z,28.05
2023-08-17T14:56:25.424Z,28.04
2023-08-17T14:58:52.356Z,28.05
2023-08-17T15:01:19.576Z,28.06
2023-08-17T15:03:48.011Z,28.06
2023-08-17T15:06:31.921Z,28.07
2023-08-17T15:09:00.971Z,28.08
2023-08-17T15:11:27.864Z,28.11
2023-08-17T15:13:54.773Z,28.13
2023-08-17T15:16:26.525Z,28.14
2023-08-17T15:18:54.102Z,28.11
2023-08-17T15:21:21.802Z,28.15
2023-08-17T15:23:48.986Z,28.18
2023-08-17T15:26:15.973Z,28.22
2023-08-17T15:28:42.924Z,28.23
2023-08-17T15:31:17.560Z,28.23
2023-08-17T15:33:44.699Z,28.26
2023-08-17T15:36:11.649Z,28.22
2023-08-17T15:38:38.575Z,28.21
2023-08-17T15:41:05.636Z,28.23
2023-08-17T15:43:32.508Z,28.23
2023-08-17T15:45:59.589Z,28.23
2023-08-17T15:48:26.588Z,28.22
2023-08-17T15:50:53.553Z,28.22
2023-08-17T15:53:20.441Z,28.23
2023-08-17T15:55:47.415Z,28.23
2023-08-17T15:58:14.465Z,28.20
2023-08-17T16:00:41.758Z,28.18
2023-08-17T16:03:13.076Z,28.15
2023-08-17T16:05:40.731Z,28.14
2023-08-17T16:08:07.885Z,28.15
2023-08-17T16:10:35.681Z,28.15
2023-08-17T16:13:03.491Z,28.09
2023-08-17T16:15:30.501Z,28.10
2023-08-17T16:18:00.744Z,28.08
2023-08-17T16:20:30.547Z,28.08
2023-08-17T16:22:57.575Z,28.05
2023-08-17T16:25:29.672Z,28.06
2023-08-17T16:27:57.182Z,28.05
2023-08-17T16:30:24.458Z,27.99
2023-08-17T16:32:51.720Z,27.98
2023-08-17T16:35:18.684Z,27.98
2023-08-17T16:37:45.588Z,27.99
2023-08-17T16:40:23.941Z,27.95
2023-08-17T16:43:00.896Z,27.96
2023-08-17T16:45:28.463Z,27.95
2023-08-17T16:47:55.623Z,27.94
2023-08-17T16:50:22.660Z,27.94
2023-08-17T16:52:49.541Z,27.95
2023-08-17T16:55:18.036Z,27.90
2023-08-17T16:57:45.046Z,27.88
2023-08-17T17:00:13.058Z,27.88
2023-08-17T17:02:40.093Z,27.88
2023-08-17T17:05:07.929Z,27.85
2023-08-17T17:07:34.804Z,27.85
2023-08-17T17:10:01.726Z,27.85
2023-08-17T17:12:28.641Z,27.83
2023-08-17T17:14:55.672Z,27.79
2023-08-17T17:17:22.661Z,27.76
2023-08-17T17:19:50.835Z,27.73
2023-08-17T17:22:17.932Z,27.70
2023-08-17T17:24:44.848Z,27.66
2023-08-17T17:27:11.792Z,27.62
2023-08-17T17:29:38.690Z,27.58
2023-08-17T17:32:05.801Z,27.60
2023-08-17T17:34:32.782Z,27.56
2023-08-17T17:36:59.760Z,27.54
2023-08-17T17:39:26.690Z,27.59
2023-08-17T17:41:55.076Z,27.58
2023-08-17T17:44:21.985Z,27.59
2023-08-17T17:46:48.965Z,27.58
2023-08-17T17:49:15.870Z,27.57
2023-08-17T17:51:42.896Z,27.56
2023-08-17T17:54:10.068Z,27.55
2023-08-17T17:56:42.082Z,27.52
2023-08-17T17:59:11.517Z,27.50
2023-08-17T18:01:38.884Z,27.45
2023-08-17T18:04:05.942Z,27.41
2023-08-17T18:06:35.280Z,27.36
2023-08-17T18:09:02.788Z,27.31
2023-08-17T18:11:30.332Z,27.31
2023-08-17T18:13:57.293Z,27.30
2023-08-17T18:16:24.262Z,27.27
2023-08-17T18:18:51.225Z,27.26
2023-08-17T18:21:18.117Z,27.26
2023-08-17T18:23:45.043Z,27.22
2023-08-17T18:26:11.961Z,27.20
2023-08-17T18:28:38.967Z,27.18
2023-08-17T18:31:05.927Z,27.14
2023-08-17T18:33:32.900Z,27.11
2023-08-17T18:35:59.772Z,27.08
2023-08-17T18:38:26.804Z,27.06
2023-08-17T18:40:54.559Z,27.02
2023-08-17T18:43:21.571Z,26.99
2023-08-17T18:45:48.532Z,26.97
2023-08-17T18:48:15.875Z,26.95
2023-08-17T18:50:42.961Z,26.92
2023-08-17T18:53:09.880Z,26.88
2023-08-17T18:55:38.024Z,26.85
2023-08-17T18:58:05.091Z,26.80
2023-08-17T19:00:32.099Z,26.76
2023-08-17T19:02:59.043Z,26.72
2023-08-17T19:05:26.165Z,26.69
2023-08-17T19:07:53.327Z,26.66
2023-08-17T19:10:20.250Z,26.64
2023-08-17T19:12:47.227Z,26.60
2023-08-17T19:15:14.128Z,26.58
2023-08-17T19:17:41.103Z,26.55
2023-08-17T19:20:09.977Z,26.53
2023-08-17T19:22:37.504Z,26.51
2023-08-17T19:25:06.209Z,26.48
2023-08-17T19:27:33.106Z,26.45
2023-08-17T19:30:00.120Z,26.42
2023-08-17T19:32:27.148Z,26.40
2023-08-17T19:34:54.081Z,26.39
2023-08-17T19:37:21.064Z,26.33
2023-08-17T19:39:47.977Z,26.33
2023-08-17T19:42:14.821Z,26.29
2023-08-17T19:44:41.715Z,26.26
2023-08-17T19:47:08.653Z,26.25
2023-08-17T19:49:35.753Z,26.22
2023-08-17T19:52:02.722Z,26.19
2023-08-17T19:54:29.633Z,26.19
2023-08-17T19:56:57.776Z,26.17
2023-08-17T19:59:25.381Z,26.13
2023-08-17T20:01:52.308Z,26.13
2023-08-17T20:04:19.347Z,26.11
2023-08-17T20:06:46.916Z,26.09
2023-08-17T20:09:14.993Z,26.09
2023-08-17T20:11:41.978Z,26.05
2023-08-17T20:14:08.987Z,26.04
2023-08-17T20:16:35.894Z,26.00
2023-08-17T20:19:05.320Z,26.00
2023-08-17T20:21:32.528Z,25.97
2023-08-17T20:23:59.555Z,25.94
2023-08-17T20:26:26.478Z,25.92
2023-08-17T20:28:53.916Z,25.88
2023-08-17T20:31:20.918Z,25.87
2023-08-17T20:33:47.826Z,25.82
2023-08-17T20:36:14.755Z,25.80
2023-08-17T20:38:43.498Z,25.78
2023-08-17T20:41:10.403Z,25.76
2023-08-17T20:43:37.511Z,25.75
2023-08-17T20:46:06.215Z,25.73
2023-08-17T20:48:33.391Z,25.73
2023-08-17T20:51:01.790Z,25.70
2023-08-17T20:53:28.830Z,25.70
2023-08-17T20:55:55.679Z,25.68
2023-08-17T20:58:22.575Z,25.67
2023-08-17T21:00:51.057Z,25.66
2023-08-17T21:03:18.017Z,25.64
2023-08-17T21:05:44.935Z,25.62
2023-08-17T21:08:12.003Z,25.60
2023-08-17T21:10:39.222Z,25.56
2023-08-17T21:13:06.126Z,25.56
2023-08-17T21:15:33.103Z,25.55
2023-08-17T21:18:00.196Z,25.49
2023-08-17T21:20:31.146Z,25.49
2023-08-17T21:22:58.085Z,25.48
2023-08-17T21:25:24.936Z,25.47
2023-08-17T21:27:51.914Z,25.41
2023-08-17T21:30:18.928Z,25.39
2023-08-17T21:32:45.895Z,25.35
2023-08-17T21:35:13.340Z,25.34
2023-08-17T21:37:43.829Z,25.32
2023-08-17T21:40:14.024Z,25.29
2023-08-17T21:42:41.050Z,25.25
2023-08-17T21:45:08.654Z,25.23
2023-08-17T21:47:35.549Z,25.21
2023-08-17T21:50:03.169Z,25.20
2023-08-17T21:52:30.458Z,25.17
2023-08-17T21:54:57.347Z,25.17
2023-08-17T21:57:24.508Z,25.16
2023-08-17T21:59:52.339Z,25.14
2023-08-17T22:02:19.854Z,25.14
2023-08-17T22:04:46.799Z,25.13
2023-08-17T22:07:13.720Z,25.10
2023-08-17T22:09:40.735Z,25.09
2023-08-17T22:12:08.031Z,25.09
2023-08-17T22:14:34.932Z,25.07
2023-08-17T22:17:01.863Z,25.04
2023-08-17T22:19:29.650Z,25.04
2023-08-17T22:21:56.579Z,25.00
2023-08-17T22:24:24.244Z,24.99
2023-08-17T22:26:53.117Z,24.96
2023-08-17T22:29:20.022Z,24.93
2023-08-17T22:31:46.948Z,24.87
2023-08-17T22:34:13.852Z,24.84
2023-08-17T22:36:40.749Z,24.85
2023-08-17T22:39:07.655Z,24.86
2023-08-17T22:41:34.824Z,24.88
2023-08-17T22:44:02.268Z,24.87
2023-08-17T22:46:29.240Z,24.86
2023-08-17T22:48:56.208Z,24.85
2023-08-17T22:51:24.202Z,24.84
2023-08-17T22:53:51.434Z,24.81
2023-08-17T22:56:18.375Z,24.80
2023-08-17T22:58:45.274Z,24.79
2023-08-17T23:01:12.213Z,24.76
2023-08-17T23:03:39.111Z,24.74
2023-08-17T23:06:06.097Z,24.73
2023-08-17T23:08:33.398Z,24.70
2023-08-17T23:11:01.849Z,24.68
2023-08-17T23:13:29.196Z,24.68
2023-08-17T23:15:56.528Z,24.65
2023-08-17T23:18:23.527Z,24.62
2023-08-17T23:20:51.175Z,24.61
2023-08-17T23:23:19.304Z,24.58
2023-08-17T23:25:46.345Z,24.55
2023-08-17T23:28:13.891Z,24.52
2023-08-17T23:30:42.154Z,24.47
2023-08-17T23:33:10.651Z,24.46
2023-08-17T23:35:41.141Z,24.42
2023-08-17T23:38:10.071Z,24.40
2023-08-17T23:40:37.157Z,24.38
2023-08-17T23:43:04.121Z,24.38
2023-08-17T23:45:31.060Z,24.36
2023-08-17T23:47:58.545Z,24.36
2023-08-17T23:50:25.535Z,24.33
2023-08-17T23:52:52.555Z,24.32
2023-08-17T23:55:19.505Z,24.31
2023-08-17T23:57:46.516Z,24.32
